Time;durP1;ratioP1;P1;durP2;ratioP2;P2;SDS_P1;SDS_P2;PMS_P1;PMS_P2;Temp;Humidity;BMP_temperature;BMP_pressure;BME280_temperature;BME280_humidity;BME280_pressure;Samples;Min_cycle;Max_cycle;Signal;HPM_P1;HPM_P2
2023/02/16 00:01:09;;;;;;;26.90;17.23;;;;;;;;;;5058142;28;20188;-77
2023/02/16 00:03:35;;;;;;;30.83;17.45;;;;;;;;;;5057077;28;20195;-77
2023/02/16 00:06:01;;;;;;;32.30;18.20;;;;;;;;;;5058489;28;20173;-77
2023/02/16 00:08:27;;;;;;;27.77;18.45;;;;;;;;;;5058903;28;20417;-77
2023/02/16 00:13:43;;;;;;;31.85;19.40;;;;;;;;;;5058355;28;20517;-80
2023/02/16 00:16:27;;;;;;;31.55;19.25;;;;;;;;;;5058881;28;20179;-77
2023/02/16 00:18:53;;;;;;;41.22;19.85;;;;;;;;;;5058461;28;20173;-77
2023/02/16 00:21:20;;;;;;;33.10;19.17;;;;;;;;;;5058547;28;20182;-77
2023/02/16 00:23:47;;;;;;;35.30;20.50;;;;;;;;;;5057180;28;20180;-77
2023/02/16 00:26:21;;;;;;;34.28;19.50;;;;;;;;;;5058462;28;20179;-77
2023/02/16 00:28:54;;;;;;;31.20;17.60;;;;;;;;;;5058022;28;20159;-77
2023/02/16 00:31:22;;;;;;;32.50;19.08;;;;;;;;;;5058463;28;20307;-76
2023/02/16 00:33:48;;;;;;;30.38;17.27;;;;;;;;;;5058305;28;20173;-77
2023/02/16 00:36:14;;;;;;;31.80;19.08;;;;;;;;;;5057110;28;20185;-77
2023/02/16 00:38:40;;;;;;;33.13;18.25;;;;;;;;;;5057595;28;20173;-77
2023/02/16 00:41:49;;;;;;;30.38;17.33;;;;;;;;;;5058424;28;20188;-77
2023/02/16 00:44:00;;;;;;;36.13;19.45;;;;;;;;;;5057782;28;20195;-77
2023/02/16 00:46:26;;;;;;;31.65;17.60;;;;;;;;;;5056950;28;20184;-77
2023/02/16 00:48:52;;;;;;;31.17;19.40;;;;;;;;;;5040030;28;20278;-77
2023/02/16 00:51:18;;;;;;;33.15;18.48;;;;;;;;;;5056750;28;20213;-78
2023/02/16 00:53:44;;;;;;;29.63;18.43;;;;;;;;;;5057334;28;20181;-78
2023/02/16 00:56:12;;;;;;;27.43;17.77;;;;;;;;;;5057754;28;20493;-77
2023/02/16 00:58:38;;;;;;;32.95;19.05;;;;;;;;;;5057663;28;20426;-77
2023/02/16 01:01:09;;;;;;;30.92;20.20;;;;;;;;;;5057575;28;20172;-77
2023/02/16 01:03:35;;;;;;;30.55;18.40;;;;;;;;;;5058088;28;20172;-77
2023/02/16 01:11:30;;;;;;;30.70;17.60;;;;;;;;;;5057832;28;20223;-77
2023/02/16 01:13:56;;;;;;;30.75;18.67;;;;;;;;;;5056180;28;20258;-77
2023/02/16 01:16:27;;;;;;;29.38;18.20;;;;;;;;;;5057334;28;20177;-78
2023/02/16 01:18:53;;;;;;;33.80;18.77;;;;;;;;;;5057254;28;20230;-77
2023/02/16 01:21:22;;;;;;;37.97;19.83;;;;;;;;;;5057592;28;20186;-77
2023/02/16 01:23:48;;;;;;;32.47;19.40;;;;;;;;;;5057040;28;20627;-79
2023/02/16 01:26:16;;;;;;;37.20;19.40;;;;;;;;;;5057404;28;20186;-78
2023/02/16 01:28:42;;;;;;;36.50;20.00;;;;;;;;;;5056472;28;20253;-78
2023/02/16 01:31:12;;;;;;;38.75;20.95;;;;;;;;;;5056609;28;20211;-76
2023/02/16 01:33:38;;;;;;;33.47;19.95;;;;;;;;;;5057108;28;20172;-78
2023/02/16 01:36:04;;;;;;;40.70;22.13;;;;;;;;;;5057005;28;20713;-77
2023/02/16 01:38:31;;;;;;;37.97;21.77;;;;;;;;;;5056126;28;20190;-77
2023/02/16 01:41:21;;;;;;;42.45;21.40;;;;;;;;;;5056639;28;20207;-76
2023/02/16 01:43:52;;;;;;;39.30;21.23;;;;;;;;;;5057001;28;20223;-77
2023/02/16 01:46:21;;;;;;;44.42;24.13;;;;;;;;;;5057533;28;20177;-79
2023/02/16 01:48:47;;;;;;;36.70;22.00;;;;;;;;;;5055603;28;20185;-77
2023/02/16 01:51:23;;;;;;;33.70;20.77;;;;;;;;;;5056467;28;20655;-78
2023/02/16 01:53:54;;;;;;;35.83;21.67;;;;;;;;;;5056677;28;20490;-77
2023/02/16 01:56:29;;;;;;;52.20;21.73;;;;;;;;;;5056672;28;20180;-77
2023/02/16 01:58:59;;;;;;;38.63;21.10;;;;;;;;;;5056510;28;20180;-78
2023/02/16 02:01:35;;;;;;;34.88;20.10;;;;;;;;;;5055415;28;20617;-78
2023/02/16 02:06:46;;;;;;;40.25;21.63;;;;;;;;;;5056317;28;20180;-78
2023/02/16 02:09:34;;;;;;;40.10;22.20;;;;;;;;;;5057159;28;20528;-77
2023/02/16 02:12:08;;;;;;;35.88;19.77;;;;;;;;;;5056298;28;20216;-77
2023/02/16 02:14:39;;;;;;;32.20;19.73;;;;;;;;;;5056175;28;20602;-77
2023/02/16 02:17:08;;;;;;;31.23;19.15;;;;;;;;;;5054730;28;20267;-77
2023/02/16 02:19:57;;;;;;;33.33;20.90;;;;;;;;;;5056662;28;20240;-78
2023/02/16 02:25:29;;;;;;;32.65;20.20;;;;;;;;;;5056791;28;20181;-78
2023/02/16 02:28:05;;;;;;;36.90;19.40;;;;;;;;;;5056619;28;20263;-78
2023/02/16 02:30:31;;;;;;;34.65;20.35;;;;;;;;;;5056727;28;20605;-77
2023/02/16 02:33:06;;;;;;;38.67;22.27;;;;;;;;;;5054984;28;20264;-78
2023/02/16 02:35:43;;;;;;;39.00;20.70;;;;;;;;;;5056460;28;20670;-78
2023/02/16 02:38:28;;;;;;;40.92;21.52;;;;;;;;;;5056172;28;20167;-78
2023/02/16 02:41:09;;;;;;;39.42;22.30;;;;;;;;;;5055885;28;20173;-76
2023/02/16 02:43:38;;;;;;;41.20;22.40;;;;;;;;;;5055316;28;20192;-77
2023/02/16 02:46:04;;;;;;;40.85;22.80;;;;;;;;;;5055601;28;20169;-77
2023/02/16 02:48:31;;;;;;;35.88;19.33;;;;;;;;;;5056091;28;20180;-77
2023/02/16 03:02:36;;;;;;;33.40;18.88;;;;;;;;;;5055860;28;20212;-78
2023/02/16 03:05:03;;;;;;;34.70;20.55;;;;;;;;;;5054247;28;20199;-79
2023/02/16 03:07:45;;;;;;;41.65;21.27;;;;;;;;;;5056477;28;20236;-77
2023/02/16 03:12:58;;;;;;;41.28;23.42;;;;;;;;;;5055817;28;20223;-78
2023/02/16 03:15:24;;;;;;;33.72;20.45;;;;;;;;;;5055383;28;20304;-78
2023/02/16 03:31:39;;;;;;;39.95;19.20;;;;;;;;;;5060032;28;20215;-77
2023/02/16 03:34:06;;;;;;;34.38;19.25;;;;;;;;;;5059466;28;20644;-76
2023/02/16 03:36:33;;;;;;;35.60;18.70;;;;;;;;;;5059248;28;20186;-77
2023/02/16 03:39:00;;;;;;;34.17;20.30;;;;;;;;;;5059244;28;20176;-77
2023/02/16 03:41:26;;;;;;;34.72;19.50;;;;;;;;;;5058300;28;20190;-77
2023/02/16 03:43:52;;;;;;;33.45;20.88;;;;;;;;;;5058299;28;20187;-77
2023/02/16 03:46:18;;;;;;;36.40;22.90;;;;;;;;;;5057682;28;20184;-77
2023/02/16 03:48:44;;;;;;;36.63;21.52;;;;;;;;;;5058845;28;20320;-77
2023/02/16 03:51:10;;;;;;;28.92;19.27;;;;;;;;;;5057967;28;20665;-77
2023/02/16 03:53:36;;;;;;;47.60;22.23;;;;;;;;;;5059070;28;20177;-77
2023/02/16 03:56:02;;;;;;;34.37;20.07;;;;;;;;;;5059063;28;20743;-77
2023/02/16 03:58:28;;;;;;;43.37;19.53;;;;;;;;;;5059231;28;20444;-77
2023/02/16 04:00:54;;;;;;;35.80;20.23;;;;;;;;;;5058963;28;20411;-77
2023/02/16 04:03:20;;;;;;;32.72;19.35;;;;;;;;;;5058841;28;20179;-77
2023/02/16 04:05:46;;;;;;;44.42;23.77;;;;;;;;;;5057570;28;20244;-79
2023/02/16 04:08:12;;;;;;;41.90;21.25;;;;;;;;;;5058552;28;20698;-79
2023/02/16 04:10:39;;;;;;;41.43;21.60;;;;;;;;;;5057536;28;20205;-79
2023/02/16 04:13:05;;;;;;;36.85;21.70;;;;;;;;;;5058523;28;20407;-79
2023/02/16 04:15:31;;;;;;;34.80;20.70;;;;;;;;;;5058405;28;20229;-77
2023/02/16 04:17:57;;;;;;;36.88;22.25;;;;;;;;;;5058037;28;20177;-77
2023/02/16 04:20:27;;;;;;;32.55;19.20;;;;;;;;;;5058729;28;20634;-77
2023/02/16 04:22:53;;;;;;;31.50;19.42;;;;;;;;;;5058698;28;20174;-78
2023/02/16 04:25:20;;;;;;;41.40;21.42;;;;;;;;;;5058663;28;20180;-77
2023/02/16 04:27:46;;;;;;;35.00;19.10;;;;;;;;;;5058729;28;20187;-77
2023/02/16 04:30:14;;;;;;;36.05;19.95;;;;;;;;;;5058977;28;20258;-77
2023/02/16 04:32:40;;;;;;;38.30;20.45;;;;;;;;;;5058411;28;20211;-77
2023/02/16 04:35:06;;;;;;;35.80;20.50;;;;;;;;;;5058573;28;20208;-77
2023/02/16 04:37:33;;;;;;;31.70;19.92;;;;;;;;;;5058218;28;20680;-77
2023/02/16 04:39:59;;;;;;;37.45;20.15;;;;;;;;;;5057879;28;20178;-78
2023/02/16 04:42:25;;;;;;;34.43;19.60;;;;;;;;;;5058467;28;20191;-79
2023/02/16 04:44:51;;;;;;;41.38;22.10;;;;;;;;;;5058504;28;20908;-78
2023/02/16 04:47:17;;;;;;;39.97;21.55;;;;;;;;;;5057976;28;20632;-78
2023/02/16 04:49:43;;;;;;;34.78;21.25;;;;;;;;;;5058400;28;20203;-77
2023/02/16 04:52:09;;;;;;;36.75;19.52;;;;;;;;;;5057855;28;20212;-78
2023/02/16 04:54:35;;;;;;;32.75;20.35;;;;;;;;;;5058512;28;20191;-78
2023/02/16 04:57:01;;;;;;;36.50;21.77;;;;;;;;;;5057702;28;20177;-78
2023/02/16 04:59:27;;;;;;;39.08;22.50;;;;;;;;;;5057946;28;20530;-78
2023/02/16 05:01:53;;;;;;;35.33;21.40;;;;;;;;;;5057525;28;20180;-77
2023/02/16 05:04:19;;;;;;;35.78;21.27;;;;;;;;;;5056483;28;20187;-77
2023/02/16 05:06:45;;;;;;;45.28;21.98;;;;;;;;;;5057862;28;20169;-77
2023/02/16 05:09:11;;;;;;;38.75;21.00;;;;;;;;;;5057819;28;20190;-77
2023/02/16 05:14:43;;;;;;;41.78;21.13;;;;;;;;;;5057536;28;20301;-77
2023/02/16 05:17:10;;;;;;;43.70;22.38;;;;;;;;;;5058052;28;20214;-78
2023/02/16 05:19:36;;;;;;;51.30;25.67;;;;;;;;;;5057359;28;20203;-78
2023/02/16 05:22:03;;;;;;;52.30;25.20;;;;;;;;;;5057274;28;20184;-77
2023/02/16 05:24:29;;;;;;;44.17;25.02;;;;;;;;;;5057527;28;20201;-78
2023/02/16 05:26:55;;;;;;;69.07;28.77;;;;;;;;;;5056951;28;20188;-78
2023/02/16 05:29:21;;;;;;;65.85;31.90;;;;;;;;;;5057575;28;20588;-77
2023/02/16 05:31:47;;;;;;;63.25;33.53;;;;;;;;;;5057711;28;20201;-77
2023/02/16 05:34:13;;;;;;;52.15;26.70;;;;;;;;;;5057233;28;20176;-78
2023/02/16 05:36:39;;;;;;;54.10;26.83;;;;;;;;;;5057151;28;20197;-77
2023/02/16 05:39:05;;;;;;;41.22;23.42;;;;;;;;;;5055780;28;20208;-77
2023/02/16 05:41:31;;;;;;;40.93;21.77;;;;;;;;;;5057742;28;20794;-77
2023/02/16 05:44:00;;;;;;;41.90;23.57;;;;;;;;;;5056224;28;20423;-77
2023/02/16 05:46:28;;;;;;;41.13;21.08;;;;;;;;;;5057395;28;20407;-77
2023/02/16 05:48:54;;;;;;;39.75;21.55;;;;;;;;;;5056208;28;20175;-78
2023/02/16 05:51:20;;;;;;;37.50;23.42;;;;;;;;;;5056562;28;20197;-78
2023/02/16 05:53:46;;;;;;;36.17;21.42;;;;;;;;;;5057107;28;20230;-77
2023/02/16 05:56:12;;;;;;;42.38;23.05;;;;;;;;;;5056534;28;20184;-77
2023/02/16 05:58:38;;;;;;;41.25;22.45;;;;;;;;;;5056898;28;20184;-77
2023/02/16 06:01:05;;;;;;;41.58;22.13;;;;;;;;;;5056681;28;20187;-77
2023/02/16 06:03:31;;;;;;;37.65;23.02;;;;;;;;;;5057358;28;20177;-77
2023/02/16 06:05:58;;;;;;;43.53;23.77;;;;;;;;;;5055622;28;20200;-77
2023/02/16 06:08:24;;;;;;;40.65;24.98;;;;;;;;;;5056950;28;20619;-77
2023/02/16 06:10:51;;;;;;;39.17;22.23;;;;;;;;;;5056559;28;20287;-77
2023/02/16 06:13:18;;;;;;;39.47;22.92;;;;;;;;;;5055917;28;20179;-78
2023/02/16 06:15:44;;;;;;;34.63;21.75;;;;;;;;;;5056543;28;20169;-78
2023/02/16 06:18:10;;;;;;;41.10;23.85;;;;;;;;;;5055944;28;20174;-77
2023/02/16 06:20:37;;;;;;;45.53;23.75;;;;;;;;;;5056039;28;20215;-78
2023/02/16 06:23:03;;;;;;;42.50;24.00;;;;;;;;;;5055839;28;20186;-78
2023/02/16 06:25:29;;;;;;;44.03;25.67;;;;;;;;;;5057000;28;20185;-77
2023/02/16 06:27:55;;;;;;;41.15;23.50;;;;;;;;;;5056572;28;20174;-78
2023/02/16 06:30:22;;;;;;;40.03;24.48;;;;;;;;;;5054991;28;20650;-77
2023/02/16 06:32:48;;;;;;;40.65;24.20;;;;;;;;;;5056017;28;20238;-77
2023/02/16 06:35:14;;;;;;;40.20;22.58;;;;;;;;;;5056439;28;20539;-78
2023/02/16 06:37:40;;;;;;;37.30;23.33;;;;;;;;;;5056522;28;20201;-78
2023/02/16 06:40:08;;;;;;;41.33;23.88;;;;;;;;;;5055862;28;20683;-78
2023/02/16 06:42:34;;;;;;;39.17;21.55;;;;;;;;;;5055135;28;20283;-77
2023/02/16 06:45:00;;;;;;;39.78;23.65;;;;;;;;;;5055915;28;20193;-77
2023/02/16 06:47:26;;;;;;;42.55;24.60;;;;;;;;;;5056426;28;20189;-78
2023/02/16 06:49:53;;;;;;;38.05;22.27;;;;;;;;;;5056286;28;20189;-78
2023/02/16 06:52:19;;;;;;;40.33;21.92;;;;;;;;;;5055883;28;20248;-77
2023/02/16 06:54:44;;;;;;;37.20;22.52;;;;;;;;;;5056469;28;20182;-78
2023/02/16 06:57:10;;;;;;;33.37;21.50;;;;;;;;;;5055814;28;20188;-77
2023/02/16 06:59:36;;;;;;;37.00;21.10;;;;;;;;;;5054523;28;20908;-78
2023/02/16 07:02:03;;;;;;;34.40;20.67;;;;;;;;;;5055290;28;20260;-79
2023/02/16 07:04:29;;;;;;;39.53;22.92;;;;;;;;;;5054527;28;20424;-78
2023/02/16 07:06:55;;;;;;;36.08;21.70;;;;;;;;;;5056050;28;20185;-78
2023/02/16 07:09:21;;;;;;;38.72;22.40;;;;;;;;;;5055618;28;20259;-77
2023/02/16 07:11:47;;;;;;;32.22;21.02;;;;;;;;;;5055536;28;20209;-82
2023/02/16 07:14:14;;;;;;;39.10;20.88;;;;;;;;;;5053698;28;20307;-82
2023/02/16 07:16:40;;;;;;;34.35;20.33;;;;;;;;;;5054874;28;20180;-82
2023/02/16 07:19:07;;;;;;;34.60;20.77;;;;;;;;;;5053155;28;20540;-82
2023/02/16 07:21:33;;;;;;;34.55;22.08;;;;;;;;;;5054970;28;20282;-82
2023/02/16 07:23:59;;;;;;;34.90;20.80;;;;;;;;;;5053371;28;20174;-82
2023/02/16 07:26:25;;;;;;;28.02;19.58;;;;;;;;;;5054384;28;20169;-82
2023/02/16 07:28:51;;;;;;;37.85;22.67;;;;;;;;;;5054360;28;20227;-82
2023/02/16 07:31:17;;;;;;;41.28;22.75;;;;;;;;;;5053931;28;20611;-82
2023/02/16 07:33:44;;;;;;;38.67;22.50;;;;;;;;;;5054559;28;20174;-82
2023/02/16 07:36:11;;;;;;;38.35;21.17;;;;;;;;;;5054384;28;20177;-82
2023/02/16 07:38:37;;;;;;;38.72;21.75;;;;;;;;;;5053635;28;20184;-82
2023/02/16 07:41:03;;;;;;;35.67;21.88;;;;;;;;;;5054690;28;20237;-82
2023/02/16 07:43:29;;;;;;;37.33;22.15;;;;;;;;;;5054187;28;20185;-82
2023/02/16 07:45:55;;;;;;;30.98;19.70;;;;;;;;;;5054998;28;20179;-82
2023/02/16 07:48:21;;;;;;;36.15;20.65;;;;;;;;;;5052960;28;20182;-83
2023/02/16 07:50:47;;;;;;;39.67;22.88;;;;;;;;;;5053641;28;20215;-82
2023/02/16 07:53:13;;;;;;;36.15;20.80;;;;;;;;;;5053075;28;20199;-81
2023/02/16 07:55:40;;;;;;;36.35;22.02;;;;;;;;;;5054054;28;20569;-83
2023/02/16 07:58:06;;;;;;;34.78;21.05;;;;;;;;;;5054156;28;20201;-83
2023/02/16 08:00:32;;;;;;;32.58;19.10;;;;;;;;;;5053610;28;20227;-83
2023/02/16 08:02:58;;;;;;;33.40;21.73;;;;;;;;;;5053110;28;20551;-82
2023/02/16 08:05:24;;;;;;;32.83;19.57;;;;;;;;;;5053167;28;20181;-82
2023/02/16 08:07:50;;;;;;;35.78;20.55;;;;;;;;;;5053987;28;20400;-82
2023/02/16 08:10:16;;;;;;;33.95;20.50;;;;;;;;;;5053497;28;20272;-81
2023/02/16 08:12:43;;;;;;;36.35;22.45;;;;;;;;;;5056855;28;20201;-82
2023/02/16 08:15:09;;;;;;;32.47;20.48;;;;;;;;;;5057532;28;20682;-83
2023/02/16 08:17:35;;;;;;;32.10;21.80;;;;;;;;;;5057489;28;20227;-82
2023/02/16 08:20:02;;;;;;;33.60;22.40;;;;;;;;;;5057805;28;20227;-82
2023/02/16 08:22:28;;;;;;;29.85;20.35;;;;;;;;;;5057910;28;20165;-82
2023/02/16 08:24:54;;;;;;;34.67;19.73;;;;;;;;;;5057209;28;20540;-82
2023/02/16 08:27:20;;;;;;;31.10;19.63;;;;;;;;;;5056985;28;20407;-82
2023/02/16 08:29:46;;;;;;;31.23;20.45;;;;;;;;;;5056299;28;20185;-82
2023/02/16 08:32:13;;;;;;;30.77;19.95;;;;;;;;;;5055095;28;20566;-82
2023/02/16 08:34:39;;;;;;;28.65;19.38;;;;;;;;;;5057630;28;20676;-82
2023/02/16 08:37:06;;;;;;;30.58;19.45;;;;;;;;;;5057071;28;20177;-82
2023/02/16 08:39:32;;;;;;;29.38;19.95;;;;;;;;;;5057046;28;20260;-82
2023/02/16 08:42:00;;;;;;;32.22;20.35;;;;;;;;;;5057408;28;20185;-82
2023/02/16 08:44:27;;;;;;;29.40;18.98;;;;;;;;;;5056849;28;20231;-84
2023/02/16 08:46:55;;;;;;;28.30;18.88;;;;;;;;;;5055588;28;20635;-83
2023/02/16 08:49:22;;;;;;;31.98;19.17;;;;;;;;;;5056789;28;20177;-83
2023/02/16 08:51:50;;;;;;;28.58;18.38;;;;;;;;;;5057188;28;20620;-83
2023/02/16 08:54:18;;;;;;;29.95;19.63;;;;;;;;;;5056856;28;20177;-82
2023/02/16 08:56:46;;;;;;;36.60;21.10;;;;;;;;;;5056965;28;20200;-83
2023/02/16 08:59:14;;;;;;;31.38;20.15;;;;;;;;;;5056642;28;20686;-83
2023/02/16 09:01:40;;;;;;;25.77;18.20;;;;;;;;;;5056556;28;20178;-82
2023/02/16 09:04:06;;;;;;;31.42;20.08;;;;;;;;;;5056934;28;20257;-82
2023/02/16 09:06:35;;;;;;;29.80;19.75;;;;;;;;;;5056491;28;20220;-82
2023/02/16 09:09:03;;;;;;;35.03;21.90;;;;;;;;;;5055455;28;20173;-82
2023/02/16 09:11:29;;;;;;;36.35;21.85;;;;;;;;;;5038829;28;21071;-82
2023/02/16 09:13:56;;;;;;;31.58;21.20;;;;;;;;;;5055904;28;21003;-83
2023/02/16 09:16:23;;;;;;;27.13;19.38;;;;;;;;;;5055081;28;20181;-82
2023/02/16 09:18:50;;;;;;;27.67;18.30;;;;;;;;;;5054809;28;20181;-83
2023/02/16 09:21:20;;;;;;;29.05;17.88;;;;;;;;;;5054923;28;20181;-82
2023/02/16 09:23:47;;;;;;;24.75;18.20;;;;;;;;;;5055239;28;20164;-82
2023/02/16 09:26:15;;;;;;;26.08;17.70;;;;;;;;;;5054468;28;20184;-83
2023/02/16 09:28:41;;;;;;;33.60;18.85;;;;;;;;;;5054712;28;20256;-82
2023/02/16 09:31:10;;;;;;;26.92;17.92;;;;;;;;;;5038396;28;20216;-82
2023/02/16 09:33:37;;;;;;;27.55;19.48;;;;;;;;;;5056033;28;20192;-81
2023/02/16 09:36:06;;;;;;;26.00;18.85;;;;;;;;;;5056210;28;20181;-82
2023/02/16 09:38:33;;;;;;;21.10;15.82;;;;;;;;;;5054328;28;20660;-82
2023/02/16 09:41:04;;;;;;;30.15;17.60;;;;;;;;;;5055525;28;20205;-82
2023/02/16 09:43:45;;;;;;;26.75;16.77;;;;;;;;;;5055601;28;20178;-82
2023/02/16 09:46:14;;;;;;;23.27;17.45;;;;;;;;;;5053968;28;20320;-82
2023/02/16 09:48:41;;;;;;;25.55;18.70;;;;;;;;;;5054199;28;20169;-82
2023/02/16 09:51:09;;;;;;;21.55;16.25;;;;;;;;;;5055394;28;20197;-82
2023/02/16 09:53:38;;;;;;;24.45;17.95;;;;;;;;;;5054570;28;20262;-82
2023/02/16 09:56:12;;;;;;;22.75;16.35;;;;;;;;;;5054281;28;20188;-82
2023/02/16 09:58:44;;;;;;;23.33;16.38;;;;;;;;;;5055189;28;20218;-82
2023/02/16 10:01:16;;;;;;;21.50;17.63;;;;;;;;;;5053779;28;20546;-81
2023/02/16 10:04:22;;;;;;;25.42;17.58;;;;;;;;;;5053886;28;20428;-82
2023/02/16 10:06:51;;;;;;;23.20;16.85;;;;;;;;;;4977911;28;20180;-82
2023/02/16 10:09:18;;;;;;;23.70;16.80;;;;;;;;;;4993439;28;20649;-83
2023/02/16 10:12:10;;;;;;;24.38;17.67;;;;;;;;;;5025223;28;20233;-82
2023/02/16 10:14:55;;;;;;;21.75;16.25;;;;;;;;;;5050172;28;20637;-82
2023/02/16 10:17:30;;;;;;;25.60;17.88;;;;;;;;;;5055084;28;20268;-82
2023/02/16 10:20:12;;;;;;;23.95;18.75;;;;;;;;;;5053880;28;20177;-82
2023/02/16 10:22:38;;;;;;;23.50;17.25;;;;;;;;;;5053716;28;20181;-82
2023/02/16 10:25:22;;;;;;;25.70;17.30;;;;;;;;;;5054826;28;20247;-82
2023/02/16 10:27:54;;;;;;;27.38;16.98;;;;;;;;;;5053375;28;20404;-82
2023/02/16 10:30:21;;;;;;;20.60;16.50;;;;;;;;;;5056539;28;20216;-82
2023/02/16 10:32:54;;;;;;;28.23;16.73;;;;;;;;;;5054545;28;20467;-82
2023/02/16 10:35:25;;;;;;;24.23;17.70;;;;;;;;;;5052930;28;20986;-82
2023/02/16 10:37:55;;;;;;;24.77;16.23;;;;;;;;;;5053807;28;20223;-82
2023/02/16 10:40:36;;;;;;;25.30;18.13;;;;;;;;;;5053128;28;20696;-83
2023/02/16 10:43:16;;;;;;;24.80;16.23;;;;;;;;;;5054471;28;20400;-82
2023/02/16 10:45:52;;;;;;;24.63;18.03;;;;;;;;;;5056183;28;20424;-82
2023/02/16 10:48:20;;;;;;;22.43;16.87;;;;;;;;;;5055194;28;20408;-82
2023/02/16 10:50:52;;;;;;;26.83;16.57;;;;;;;;;;5055062;28;20396;-82
2023/02/16 10:53:24;;;;;;;21.77;15.30;;;;;;;;;;5054704;28;20508;-83
2023/02/16 10:55:50;;;;;;;25.47;18.00;;;;;;;;;;5053842;28;20538;-82
2023/02/16 10:58:19;;;;;;;27.10;17.40;;;;;;;;;;5037233;28;20451;-87
2023/02/16 11:00:54;;;;;;;21.37;16.20;;;;;;;;;;5054455;28;20404;-82
2023/02/16 11:03:23;;;;;;;24.03;18.43;;;;;;;;;;5054042;28;20764;-83
2023/02/16 11:05:49;;;;;;;22.87;17.30;;;;;;;;;;5054215;28;20404;-82
2023/02/16 11:08:16;;;;;;;21.73;16.60;;;;;;;;;;5036512;28;20519;-82
2023/02/16 11:10:50;;;;;;;22.03;17.87;;;;;;;;;;5052770;28;20408;-83
2023/02/16 11:13:31;;;;;;;21.07;16.70;;;;;;;;;;5052743;28;20415;-82
2023/02/16 11:16:00;;;;;;;20.20;16.63;;;;;;;;;;5054416;28;20412;-81
2023/02/16 11:18:30;;;;;;;24.37;18.10;;;;;;;;;;5052752;28;20419;-81
2023/02/16 11:20:57;;;;;;;23.53;16.50;;;;;;;;;;5054095;28;20499;-81
2023/02/16 11:23:23;;;;;;;32.67;19.33;;;;;;;;;;5053849;28;20422;-81
2023/02/16 11:25:55;;;;;;;21.63;15.03;;;;;;;;;;5053077;28;20424;-81
2023/02/16 11:28:26;;;;;;;22.03;15.30;;;;;;;;;;5052276;28;20787;-81
2023/02/16 11:30:58;;;;;;;23.43;15.73;;;;;;;;;;5054059;28;20415;-81
2023/02/16 11:33:26;;;;;;;20.10;14.80;;;;;;;;;;5054030;28;20739;-82
2023/02/16 11:35:52;;;;;;;21.33;14.43;;;;;;;;;;5054259;28;20396;-81
2023/02/16 11:38:30;;;;;;;25.60;15.70;;;;;;;;;;5052628;28;20383;-84
2023/02/16 11:40:56;;;;;;;22.43;15.30;;;;;;;;;;5052861;28;20779;-82
2023/02/16 11:43:25;;;;;;;22.33;15.70;;;;;;;;;;5052321;28;20424;-82
2023/02/16 11:45:59;;;;;;;25.60;15.90;;;;;;;;;;5053723;28;20948;-82
2023/02/16 11:48:28;;;;;;;20.33;15.90;;;;;;;;;;5057675;28;20375;-82
2023/02/16 11:51:00;;;;;;;21.77;14.00;;;;;;;;;;5057771;28;20400;-82
2023/02/16 11:53:28;;;;;;;18.80;14.20;;;;;;;;;;5057277;28;20404;-82
2023/02/16 11:56:09;;;;;;;23.60;14.50;;;;;;;;;;5056470;28;20404;-82
2023/02/16 11:58:36;;;;;;;23.70;15.30;;;;;;;;;;5056366;28;20395;-82
2023/02/16 12:01:11;;;;;;;20.53;15.70;;;;;;;;;;5057884;28;20473;-81
2023/02/16 12:03:54;;;;;;;21.03;16.23;;;;;;;;;;5055800;28;20474;-82
2023/02/16 12:06:19;;;;;;;27.37;17.40;;;;;;;;;;5057757;28;20400;-82
2023/02/16 12:11:58;;;;;;;25.07;18.23;;;;;;;;;;5057162;28;20816;-82
2023/02/16 12:14:36;;;;;;;21.37;15.67;;;;;;;;;;5056695;28;20459;-82
2023/02/16 12:17:12;;;;;;;20.80;14.90;;;;;;;;;;5056882;28;20412;-82
2023/02/16 12:19:43;;;;;;;24.30;16.30;;;;;;;;;;5056628;28;20812;-82
2023/02/16 12:22:16;;;;;;;21.83;17.87;;;;;;;;;;5056884;28;20412;-82
2023/02/16 12:25:01;;;;;;;20.37;15.93;;;;;;;;;;5056735;28;20523;-81
2023/02/16 12:27:37;;;;;;;23.23;17.03;;;;;;;;;;5056113;28;20486;-82
2023/02/16 12:30:12;;;;;;;24.10;17.60;;;;;;;;;;5056027;28;20762;-82
2023/02/16 12:32:58;;;;;;;20.43;16.70;;;;;;;;;;5056499;28;20820;-82
2023/02/16 12:35:33;;;;;;;21.10;17.37;;;;;;;;;;5056594;28;20797;-81
2023/02/16 12:38:02;;;;;;;26.67;17.30;;;;;;;;;;5056858;28;20410;-81
2023/02/16 12:40:28;;;;;;;21.47;15.97;;;;;;;;;;5056543;28;20416;-82
2023/02/16 12:42:57;;;;;;;21.37;17.10;;;;;;;;;;5056420;28;20408;-82
2023/02/16 12:45:26;;;;;;;18.77;16.03;;;;;;;;;;5056342;28;20782;-85
2023/02/16 12:47:55;;;;;;;23.13;17.33;;;;;;;;;;5056554;28;20406;-81
2023/02/16 12:50:23;;;;;;;26.30;15.57;;;;;;;;;;5056139;28;20416;-82
2023/02/16 12:53:20;;;;;;;22.33;16.70;;;;;;;;;;5055361;28;20487;-77
2023/02/16 12:55:56;;;;;;;21.60;15.60;;;;;;;;;;5043765;28;20424;-80
2023/02/16 12:58:24;;;;;;;23.40;15.90;;;;;;;;;;5046731;28;20427;-81
2023/02/16 13:00:57;;;;;;;21.20;16.00;;;;;;;;;;5055053;28;20511;-80
2023/02/16 13:03:24;;;;;;;23.00;15.97;;;;;;;;;;5055599;28;20447;-80
2023/02/16 13:06:02;;;;;;;23.83;15.53;;;;;;;;;;5055620;28;20439;-80
2023/02/16 13:08:51;;;;;;;22.60;15.93;;;;;;;;;;5056145;28;20515;-80
2023/02/16 13:11:21;;;;;;;21.20;17.37;;;;;;;;;;5027461;28;20822;-80
2023/02/16 13:13:48;;;;;;;21.00;16.30;;;;;;;;;;5055714;28;20509;-79
2023/02/16 13:16:33;;;;;;;22.77;17.07;;;;;;;;;;5056450;28;20427;-79
2023/02/16 13:18:59;;;;;;;25.83;17.57;;;;;;;;;;5056644;28;20416;-79
2023/02/16 13:21:25;;;;;;;24.80;18.57;;;;;;;;;;5055593;28;20386;-85
2023/02/16 13:23:57;;;;;;;25.50;18.30;;;;;;;;;;5054631;28;20416;-79
2023/02/16 13:26:29;;;;;;;22.20;17.67;;;;;;;;;;5056659;28;20503;-79
2023/02/16 13:29:01;;;;;;;26.03;18.63;;;;;;;;;;5053892;28;20411;-79
2023/02/16 13:32:06;;;;;;;23.47;16.80;;;;;;;;;;5056106;28;20456;-80
2023/02/16 13:34:44;;;;;;;22.70;18.37;;;;;;;;;;4993897;28;20765;-80
2023/02/16 13:37:13;;;;;;;26.00;19.00;;;;;;;;;;4994937;28;20780;-84
2023/02/16 13:39:57;;;;;;;27.37;18.17;;;;;;;;;;5029288;28;20476;-80
2023/02/16 13:42:33;;;;;;;22.33;17.17;;;;;;;;;;5055088;28;20542;-80
2023/02/16 13:45:00;;;;;;;30.90;18.30;;;;;;;;;;5055452;28;20466;-80
2023/02/16 13:47:28;;;;;;;20.90;16.67;;;;;;;;;;5055494;28;20412;-85
2023/02/16 13:49:59;;;;;;;21.33;14.73;;;;;;;;;;5053467;28;20489;-80
2023/02/16 13:52:29;;;;;;;19.90;14.77;;;;;;;;;;5053928;28;20514;-81
2023/02/16 13:54:56;;;;;;;18.37;14.53;;;;;;;;;;5055487;28;20809;-81
2023/02/16 13:57:42;;;;;;;19.57;14.90;;;;;;;;;;5051216;28;20398;-81
2023/02/16 14:00:27;;;;;;;20.23;14.63;;;;;;;;;;5041816;28;20413;-80
2023/02/16 14:02:55;;;;;;;18.03;14.10;;;;;;;;;;5034738;28;20436;-80
2023/02/16 14:05:41;;;;;;;16.40;13.77;;;;;;;;;;5033405;28;20820;-79
2023/02/16 14:08:17;;;;;;;19.13;13.90;;;;;;;;;;5035284;28;20392;-79
2023/02/16 14:10:53;;;;;;;16.53;13.07;;;;;;;;;;5033948;28;20900;-79
2023/02/16 14:13:31;;;;;;;15.43;12.20;;;;;;;;;;5033339;28;20982;-80
2023/02/16 14:16:00;;;;;;;13.53;12.13;;;;;;;;;;5017105;28;20937;-79
2023/02/16 14:18:26;;;;;;;14.13;11.23;;;;;;;;;;5034800;28;20383;-79
2023/02/16 14:21:02;;;;;;;14.40;11.27;;;;;;;;;;5016818;28;20390;-80
2023/02/16 14:23:33;;;;;;;17.17;12.50;;;;;;;;;;5034165;28;20384;-83
2023/02/16 14:26:06;;;;;;;16.03;11.53;;;;;;;;;;5016811;28;20384;-80
2023/02/16 14:28:35;;;;;;;22.00;11.73;;;;;;;;;;5016376;28;20693;-81
2023/02/16 14:31:03;;;;;;;18.07;12.30;;;;;;;;;;5034324;28;20391;-80
2023/02/16 14:33:48;;;;;;;17.10;12.40;;;;;;;;;;5034612;28;20414;-85
2023/02/16 14:36:18;;;;;;;16.70;10.97;;;;;;;;;;5034177;28;20379;-80
2023/02/16 14:38:46;;;;;;;14.50;11.00;;;;;;;;;;5034437;28;20441;-80
2023/02/16 14:41:18;;;;;;;13.03;11.63;;;;;;;;;;5034369;28;20440;-80
2023/02/16 14:43:46;;;;;;;14.10;10.93;;;;;;;;;;5034034;28;20824;-79
2023/02/16 14:46:18;;;;;;;15.70;11.80;;;;;;;;;;5034388;28;20429;-79
2023/02/16 14:48:47;;;;;;;17.17;12.00;;;;;;;;;;5015949;28;20421;-79
2023/02/16 14:51:22;;;;;;;12.70;9.87;;;;;;;;;;5034029;28;20462;-80
2023/02/16 14:53:51;;;;;;;17.07;10.30;;;;;;;;;;5016288;28;20741;-80
2023/02/16 14:56:34;;;;;;;15.70;10.17;;;;;;;;;;5034107;28;20781;-79
2023/02/16 14:59:06;;;;;;;15.43;10.07;;;;;;;;;;5034441;28;20397;-80
2023/02/16 15:01:39;;;;;;;13.60;11.30;;;;;;;;;;5015842;28;20512;-79
2023/02/16 15:04:05;;;;;;;15.83;10.30;;;;;;;;;;5016231;28;20910;-80
2023/02/16 15:06:33;;;;;;;15.30;9.93;;;;;;;;;;5016222;28;20431;-81
2023/02/16 15:09:00;;;;;;;13.73;9.23;;;;;;;;;;5033957;28;20397;-79
2023/02/16 15:11:31;;;;;;;16.90;9.57;;;;;;;;;;5033645;28;20953;-79
2023/02/16 15:14:06;;;;;;;17.43;10.37;;;;;;;;;;5033420;28;21017;-79
2023/02/16 15:16:32;;;;;;;11.10;7.83;;;;;;;;;;5015902;28;20421;-80
2023/02/16 15:19:02;;;;;;;9.47;6.00;;;;;;;;;;5016083;28;20428;-80